createdAt,value
2022-09-15T04:40:23.204Z,8.97
2022-09-15T04:45:27.370Z,8.23
2022-09-15T04:50:30.157Z,8.33
2022-09-15T04:55:34.077Z,8.47
2022-09-15T05:00:43.759Z,8.00
2022-09-15T05:05:48.674Z,8.27
2022-09-15T05:10:51.938Z,7.73
2022-09-15T05:15:55.435Z,7.90
2022-09-15T05:21:02.792Z,7.33
2022-09-15T05:26:08.495Z,7.17
2022-09-15T05:31:21.758Z,6.93
2022-09-15T05:36:25.869Z,7.17
2022-09-15T05:41:29.770Z,7.03
2022-09-15T05:46:33.050Z,7.73
2022-09-15T05:51:36.749Z,7.60
2022-09-15T05:56:40.290Z,8.43
2022-09-15T06:01:43.357Z,5.63
2022-09-15T06:06:46.215Z,3.00
2022-09-15T06:11:50.592Z,2.20
2022-09-15T06:16:53.417Z,1.40
2022-09-15T06:21:56.360Z,1.30
2022-09-15T06:26:59.511Z,1.37
2022-09-15T06:32:03.019Z,1.50
2022-09-15T06:37:06.160Z,1.60
2022-09-15T06:42:13.328Z,1.33
2022-09-15T06:47:17.438Z,1.70
2022-09-15T06:52:21.408Z,1.57
2022-09-15T06:57:25.219Z,2.00
2022-09-15T07:02:28.335Z,2.57
2022-09-15T07:07:31.729Z,1.83
2022-09-15T07:12:35.074Z,1.90
2022-09-15T07:17:38.309Z,2.30
2022-09-15T07:22:41.914Z,1.97
2022-09-15T07:27:44.690Z,1.70
2022-09-15T07:32:47.958Z,2.30
2022-09-15T07:37:52.056Z,1.97
2022-09-15T07:42:55.336Z,3.10
2022-09-15T07:47:58.675Z,3.23
2022-09-15T07:53:02.242Z,3.87
2022-09-15T07:58:05.999Z,3.67
2022-09-15T08:03:09.395Z,4.30
2022-09-15T08:08:12.471Z,4.53
2022-09-15T08:13:15.620Z,3.63
2022-09-15T08:18:18.516Z,3.57
2022-09-15T08:23:22.212Z,3.67
2022-09-15T08:28:26.301Z,3.10
2022-09-15T08:33:30.241Z,3.00
2022-09-15T08:38:35.105Z,2.47
2022-09-15T08:43:51.771Z,2.30
2022-09-15T08:49:47.573Z,3.40
2022-09-15T08:54:47.267Z,3.20
2022-09-15T08:59:50.757Z,3.87
2022-09-15T09:05:10.188Z,5.93
2022-09-15T09:10:21.402Z,5.70
2022-09-15T09:15:46.608Z,5.00
2022-09-15T09:21:04.785Z,4.17
2022-09-15T09:26:11.229Z,3.87
2022-09-15T09:31:22.262Z,4.07
2022-09-15T09:36:27.448Z,2.83
2022-09-15T09:41:36.617Z,3.00
2022-09-15T09:46:40.206Z,3.20
2022-09-15T09:51:59.946Z,2.47
2022-09-15T09:57:41.660Z,2.23
2022-09-15T10:02:48.796Z,2.60
2022-09-15T10:07:52.078Z,2.77
2022-09-15T10:12:59.398Z,2.60
2022-09-15T10:18:02.624Z,2.83
2022-09-15T10:23:30.292Z,3.20
2022-09-15T10:28:33.494Z,3.30
2022-09-15T10:33:42.076Z,2.97
2022-09-15T10:39:16.195Z,2.83
2022-09-15T10:44:37.538Z,3.50
2022-09-15T10:49:54.658Z,3.20
2022-09-15T10:55:09.455Z,3.50
2022-09-15T11:00:22.948Z,3.83
2022-09-15T11:05:44.641Z,3.43
2022-09-15T11:11:07.966Z,3.77
2022-09-15T11:16:35.855Z,4.17
2022-09-15T11:22:01.623Z,4.83
2022-09-15T11:27:19.934Z,4.80
2022-09-15T11:32:29.833Z,4.83
2022-09-15T11:37:46.212Z,5.20
2022-09-15T11:43:16.298Z,4.67
2022-09-15T11:48:33.896Z,4.80
2022-09-15T11:53:51.007Z,6.07
2022-09-15T11:59:18.384Z,6.40
2022-09-15T12:04:29.506Z,7.23
2022-09-15T12:09:33.188Z,6.90
2022-09-15T12:14:41.700Z,7.73
2022-09-15T12:19:50.301Z,8.53
2022-09-15T12:25:13.076Z,10.07
2022-09-15T12:30:38.730Z,10.77
2022-09-15T12:35:41.533Z,11.20
2022-09-15T12:40:44.426Z,11.57
2022-09-15T12:45:56.732Z,14.07
2022-09-15T12:51:02.558Z,17.23
2022-09-15T12:56:07.824Z,21.83
2022-09-15T13:01:19.805Z,24.30
2022-09-15T13:06:27.210Z,27.17
2022-09-15T13:11:42.568Z,25.67
2022-09-15T13:17:14.703Z,21.37
2022-09-15T13:22:29.993Z,18.00
2022-09-15T13:27:36.905Z,15.27
2022-09-15T13:33:02.718Z,14.03
2022-09-15T13:38:33.585Z,13.63
2022-09-15T13:44:06.159Z,13.30
2022-09-15T13:49:25.021Z,11.70
2022-09-15T13:54:28.169Z,13.67
2022-09-15T13:59:32.640Z,13.13
2022-09-15T14:04:35.426Z,14.10
2022-09-15T14:09:47.489Z,15.77
2022-09-15T14:14:58.208Z,14.87
2022-09-15T14:20:02.098Z,13.33
2022-09-15T14:25:16.865Z,11.67
2022-09-15T14:30:32.016Z,11.00
2022-09-15T14:35:37.095Z,9.73
2022-09-15T14:40:41.423Z,8.87
2022-09-15T14:45:55.226Z,8.70
2022-09-15T14:51:03.207Z,8.77
2022-09-15T14:56:18.765Z,8.43
2022-09-15T15:01:51.112Z,7.63
2022-09-15T15:07:01.821Z,7.47
2022-09-15T15:12:15.506Z,7.40
2022-09-15T15:17:37.304Z,7.03
2022-09-15T15:22:42.289Z,6.30
2022-09-15T15:27:55.282Z,7.07
2022-09-15T15:33:01.359Z,6.60
2022-09-15T15:38:13.222Z,5.93
2022-09-15T15:43:26.289Z,6.83
2022-09-15T15:48:38.178Z,6.63
2022-09-15T15:53:42.081Z,5.87
2022-09-15T15:58:45.108Z,7.73
2022-09-15T16:03:47.964Z,7.37
2022-09-15T16:08:52.471Z,6.37
2022-09-15T16:13:56.553Z,6.30
2022-09-15T16:18:59.761Z,5.97
2022-09-15T16:24:03.539Z,5.87
2022-09-15T16:29:06.820Z,6.30
2022-09-15T16:34:12.758Z,7.57
2022-09-15T16:39:15.785Z,7.37
2022-09-15T16:44:19.890Z,7.77
2022-09-15T16:49:23.131Z,9.40
2022-09-15T16:54:26.029Z,9.93
2022-09-15T16:59:28.931Z,10.47
2022-09-15T17:04:31.797Z,9.93
2022-09-15T17:09:36.996Z,9.50
2022-09-15T17:14:39.804Z,9.33
2022-09-15T17:19:42.564Z,8.87
2022-09-15T17:24:45.386Z,9.13
2022-09-15T17:29:48.326Z,9.37
2022-09-15T17:34:51.902Z,7.73
2022-09-15T17:39:58.808Z,8.33
2022-09-15T17:45:02.061Z,6.60
2022-09-15T17:50:05.505Z,6.37
2022-09-15T17:55:21.523Z,6.17
2022-09-15T18:00:26.106Z,6.37
2022-09-15T18:05:31.155Z,6.07
2022-09-15T18:10:35.785Z,6.03
2022-09-15T18:15:40.759Z,6.77
2022-09-15T18:20:46.190Z,6.83
2022-09-15T18:25:49.861Z,6.63
2022-09-15T18:30:53.134Z,6.80
2022-09-15T18:35:59.050Z,7.17
2022-09-15T18:41:02.357Z,7.80
2022-09-15T18:46:05.251Z,8.27
2022-09-15T18:51:09.376Z,9.33
2022-09-15T18:56:12.996Z,9.80
2022-09-15T19:01:18.006Z,8.73
2022-09-15T19:06:20.979Z,9.80
2022-09-15T19:11:23.963Z,10.17
2022-09-15T19:16:58.173Z,9.33
2022-09-15T19:22:13.762Z,10.33
2022-09-15T19:27:16.654Z,11.27
2022-09-15T19:32:21.099Z,10.93
2022-09-15T19:37:24.142Z,10.97
2022-09-15T19:42:27.067Z,12.10
2022-09-15T19:47:30.044Z,11.87
2022-09-15T19:52:33.038Z,11.47
2022-09-15T19:57:39.783Z,11.37
2022-09-15T20:02:42.651Z,11.37
2022-09-15T20:07:48.865Z,11.17
2022-09-15T20:12:51.769Z,11.83
2022-09-15T20:17:54.667Z,11.03
2022-09-15T20:22:57.609Z,12.43
2022-09-15T20:28:00.405Z,10.80
2022-09-15T20:33:04.028Z,10.37
2022-09-15T20:38:06.880Z,9.53
2022-09-15T20:43:09.746Z,11.03
2022-09-15T20:48:12.516Z,11.33
2022-09-15T20:53:15.304Z,11.03
2022-09-15T20:58:18.091Z,11.10
2022-09-15T21:03:20.947Z,10.13
2022-09-15T21:08:24.052Z,10.17
2022-09-15T21:13:31.319Z,10.60
2022-09-15T21:18:36.618Z,9.80
2022-09-15T21:23:47.508Z,8.60
2022-09-15T21:28:51.223Z,8.80
2022-09-15T21:33:54.920Z,8.33
2022-09-15T21:38:59.589Z,7.87
2022-09-15T21:44:02.579Z,8.90
2022-09-15T21:49:05.357Z,7.97
2022-09-15T21:54:08.684Z,8.93
2022-09-15T21:59:11.776Z,9.73
2022-09-15T22:04:14.553Z,9.23
2022-09-15T22:09:21.391Z,9.30
2022-09-15T22:14:24.243Z,9.10
2022-09-15T22:19:27.191Z,8.50
2022-09-15T22:24:30.094Z,7.83
2022-09-15T22:29:33.175Z,8.50
2022-09-15T22:34:36.077Z,8.03
2022-09-15T22:39:58.004Z,7.97
2022-09-15T22:45:01.944Z,8.97
2022-09-15T22:50:05.569Z,8.57
2022-09-15T22:55:09.262Z,8.43
2022-09-15T23:00:12.692Z,9.27
2022-09-15T23:05:15.680Z,10.40
2022-09-15T23:10:18.612Z,9.73
2022-09-15T23:15:21.937Z,10.43
2022-09-15T23:20:24.691Z,8.70
2022-09-15T23:25:27.512Z,8.77
2022-09-15T23:30:30.313Z,8.63
